Time;durP1;ratioP1;P1;durP2;ratioP2;P2;SDS_P1;SDS_P2;PMS_P1;PMS_P2;Temp;Humidity;BMP_temperature;BMP_pressure;BME280_temperature;BME280_humidity;BME280_pressure;Samples;Min_cycle;Max_cycle;Signal;HPM_P1;HPM_P2
2022/09/28 00:02:04;;;;;;;8.05;3.25;;;;;;;6.89;86.92;98874.97;1663315;84;21085;-75
2022/09/28 00:04:32;;;;;;;6.33;3.58;;;;;;;6.85;86.94;98871.86;1659691;85;21179;-75
2022/09/28 00:06:59;;;;;;;9.20;3.92;;;;;;;6.83;86.96;98871.20;1659667;85;21561;-75
2022/09/28 00:09:25;;;;;;;7.12;3.40;;;;;;;6.82;86.93;98866.94;1652319;85;21031;-75
2022/09/28 00:11:52;;;;;;;8.68;3.47;;;;;;;6.81;86.97;98867.11;1662420;85;21166;-75
2022/09/28 00:14:19;;;;;;;5.28;3.83;;;;;;;6.79;86.96;98868.60;1660202;85;21096;-75
2022/09/28 00:16:46;;;;;;;9.73;4.25;;;;;;;6.77;86.93;98861.85;1645880;85;21096;-75
2022/09/28 00:19:12;;;;;;;9.60;4.35;;;;;;;6.74;86.95;98856.42;1658664;85;21049;-76
2022/09/28 00:21:39;;;;;;;7.53;4.00;;;;;;;6.70;86.93;98859.61;1655078;85;21067;-75
2022/09/28 00:24:16;;;;;;;7.55;3.72;;;;;;;6.63;86.95;98859.53;1662834;85;21036;-76
2022/09/28 00:26:56;;;;;;;4.42;2.83;;;;;;;6.57;86.96;98854.97;1622890;85;21168;-75
2022/09/28 00:29:32;;;;;;;6.22;2.60;;;;;;;6.51;86.96;98853.02;1651539;84;21716;-75
2022/09/28 00:32:08;;;;;;;5.12;2.62;;;;;;;6.47;86.96;98847.27;1642013;85;21471;-75
2022/09/28 00:34:41;;;;;;;8.00;2.90;;;;;;;6.43;86.97;98843.37;1663031;84;21105;-75
2022/09/28 00:37:08;;;;;;;8.40;2.50;;;;;;;6.39;87.00;98842.08;1663051;84;21015;-75
2022/09/28 00:39:40;;;;;;;5.05;2.65;;;;;;;6.37;86.98;98835.30;1663412;84;21022;-75
2022/09/28 00:42:14;;;;;;;3.70;2.45;;;;;;;6.35;87.00;98843.44;1654636;85;21137;-75
2022/09/28 00:44:50;;;;;;;6.92;2.62;;;;;;;6.33;87.00;98839.34;1645048;84;21083;-75
2022/09/28 00:47:31;;;;;;;4.30;2.65;;;;;;;6.31;87.01;98851.92;1645198;85;21072;-75
2022/09/28 00:50:21;;;;;;;5.92;2.72;;;;;;;6.31;87.00;98855.39;1619056;86;21088;-75
2022/09/28 00:53:00;;;;;;;7.65;3.12;;;;;;;6.30;87.04;98840.50;1641382;85;21037;-75
2022/09/28 00:55:41;;;;;;;4.55;2.52;;;;;;;6.28;87.03;98846.48;1660281;84;21134;-75
2022/09/28 00:58:09;;;;;;;6.47;3.30;;;;;;;6.28;87.04;98841.69;1663051;84;21065;-76
2022/09/28 01:00:35;;;;;;;5.45;2.50;;;;;;;6.27;87.05;98842.19;1617840;87;21537;-75
2022/09/28 01:03:02;;;;;;;5.67;2.60;;;;;;;6.25;87.05;98841.56;1639399;85;21014;-75
2022/09/28 01:05:29;;;;;;;7.55;2.75;;;;;;;6.24;87.04;98841.23;1623508;86;21047;-75
2022/09/28 01:07:56;;;;;;;5.10;2.92;;;;;;;6.22;87.06;98839.78;1604066;86;21161;-75
2022/09/28 01:10:22;;;;;;;4.28;2.65;;;;;;;6.20;87.09;98842.59;1643256;85;21068;-75
2022/09/28 01:12:48;;;;;;;6.03;3.22;;;;;;;6.17;87.11;98837.66;1617398;87;21041;-75
2022/09/28 01:15:14;;;;;;;4.62;2.77;;;;;;;6.17;87.14;98840.31;1650508;85;21986;-75
2022/09/28 01:18:18;;;;;;;3.52;2.27;;;;;;;6.15;87.16;98841.50;1639554;85;21067;-75
2022/09/28 01:21:06;;;;;;;6.95;3.10;;;;;;;6.11;87.15;98843.69;1637226;85;21169;-75
2022/09/28 01:23:53;;;;;;;5.37;2.72;;;;;;;6.07;87.17;98839.75;1636910;85;21084;-75
2022/09/28 01:26:37;;;;;;;4.25;2.50;;;;;;;6.03;87.22;98841.92;1658875;83;21070;-75
2022/09/28 01:29:39;;;;;;;5.53;2.95;;;;;;;6.01;87.24;98834.68;1664361;84;20978;-76
2022/09/28 01:32:22;;;;;;;9.55;3.15;;;;;;;6.02;87.26;98834.16;1660651;83;21034;-76
2022/09/28 01:35:13;;;;;;;6.55;3.58;;;;;;;6.03;87.32;98827.87;1636252;85;21137;-76
2022/09/28 01:37:52;;;;;;;4.62;3.00;;;;;;;6.04;87.31;98826.87;1628896;86;21029;-76
2022/09/28 01:40:20;;;;;;;5.58;2.77;;;;;;;6.06;87.34;98816.92;1656702;85;21037;-76
2022/09/28 01:42:51;;;;;;;5.67;3.10;;;;;;;6.07;87.36;98817.25;1642933;85;21532;-76
2022/09/28 01:45:27;;;;;;;5.65;3.22;;;;;;;6.07;87.37;98814.61;1641611;85;20987;-76
2022/09/28 01:47:57;;;;;;;9.45;3.45;;;;;;;6.08;87.38;98817.58;1641004;85;21123;-75
2022/09/28 01:50:23;;;;;;;5.30;3.00;;;;;;;6.07;87.41;98815.93;1669043;84;28311;-76
2022/09/28 01:52:57;;;;;;;4.42;3.30;;;;;;;6.05;87.43;98812.66;1655291;84;21069;-75
2022/09/28 01:55:46;;;;;;;4.17;2.80;;;;;;;6.03;87.46;98814.14;1663836;85;21010;-76
2022/09/28 01:58:28;;;;;;;5.90;3.08;;;;;;;6.05;87.50;98814.48;1629854;87;21061;-75
2022/09/28 02:01:01;;;;;;;4.05;2.83;;;;;;;6.04;87.52;98814.97;1658311;85;21096;-75
2022/09/28 02:03:35;;;;;;;5.97;3.05;;;;;;;6.02;87.54;98809.02;1656524;84;21007;-75
2022/09/28 02:06:07;;;;;;;6.12;2.92;;;;;;;5.99;87.54;98810.70;1624324;85;21505;-76
2022/09/28 02:08:41;;;;;;;5.00;2.67;;;;;;;5.98;87.57;98810.41;1659579;86;21096;-75
2022/09/28 02:11:13;;;;;;;7.45;3.30;;;;;;;5.98;87.59;98819.67;1638344;87;21074;-75
2022/09/28 02:13:42;;;;;;;7.85;3.45;;;;;;;5.98;87.61;98819.14;1653540;84;21596;-75
2022/09/28 02:16:30;;;;;;;4.53;2.90;;;;;;;5.98;87.62;98815.70;1623730;85;21029;-75
2022/09/28 02:18:56;;;;;;;9.23;4.83;;;;;;;5.96;87.63;98815.86;1657372;84;22086;-75
2022/09/28 02:21:26;;;;;;;6.53;4.00;;;;;;;5.94;87.64;98822.34;1633873;86;21117;-75
2022/09/28 02:23:56;;;;;;;8.00;4.28;;;;;;;5.92;87.65;98816.39;1677022;84;21048;-76
2022/09/28 02:26:26;;;;;;;;;;;;;;;5.88;87.65;98819.06;1684464;84;21871;-75
2022/09/28 02:28:52;;;;;;;6.08;3.67;;;;;;;5.85;87.66;98822.87;1676425;83;20167;-75
2022/09/28 02:31:18;;;;;;;6.97;3.72;;;;;;;5.82;87.67;98819.76;1678152;84;21109;-75
2022/09/28 02:33:44;;;;;;;4.53;3.02;;;;;;;5.80;87.70;98813.84;1658544;85;21072;-75
2022/09/28 02:36:10;;;;;;;5.67;3.70;;;;;;;5.77;87.67;98813.67;1655671;85;21081;-76
2022/09/28 02:38:37;;;;;;;5.55;3.47;;;;;;;5.77;87.71;98811.55;1622780;87;21157;-75
2022/09/28 02:41:16;;;;;;;6.17;3.65;;;;;;;5.73;87.72;98808.94;1668605;84;21077;-75
2022/09/28 02:44:15;;;;;;;8.00;4.28;;;;;;;5.70;87.71;98815.91;1667724;83;24335;-75
2022/09/28 02:46:49;;;;;;;15.63;7.00;;;;;;;5.66;87.71;98814.62;1686236;84;21076;-75
2022/09/28 02:49:24;;;;;;;16.00;6.50;;;;;;;5.61;87.73;98814.31;1681942;84;21020;-76
2022/09/28 02:52:16;;;;;;;17.87;6.47;;;;;;;5.57;87.76;98814.34;1679924;83;21170;-76
2022/09/28 02:55:20;;;;;;;13.83;5.75;;;;;;;5.49;87.76;98814.72;1645596;85;21024;-75
2022/09/28 02:58:04;;;;;;;11.85;4.90;;;;;;;5.41;87.75;98820.09;1640080;85;21024;-75
2022/09/28 03:03:28;;;;;;;10.03;5.03;;;;;;;5.38;87.79;98816.97;1778739;78;38187;-76
2022/09/28 03:06:02;;;;;;;9.65;4.40;;;;;;;5.35;87.80;98812.01;1769739;78;21006;-77
2022/09/28 03:08:46;;;;;;;11.03;4.00;;;;;;;5.35;87.80;98808.88;1765156;78;21099;-77
2022/09/28 03:11:15;;;;;;;7.20;3.52;;;;;;;5.33;87.79;98808.73;1787660;78;20906;-77
2022/09/28 03:13:41;;;;;;;11.22;4.12;;;;;;;5.24;87.79;98815.88;1794612;78;21029;-76
2022/09/28 03:16:14;;;;;;;6.50;3.85;;;;;;;5.22;87.80;98819.20;1772059;78;21085;-77
2022/09/28 03:18:40;;;;;;;7.10;3.83;;;;;;;5.21;87.82;98817.55;1760587;79;21635;-76
2022/09/28 03:21:06;;;;;;;6.75;3.40;;;;;;;5.20;87.83;98817.25;1765441;78;21821;-76
2022/09/28 03:23:33;;;;;;;5.00;3.58;;;;;;;5.21;87.84;98818.05;1758738;78;20986;-77
2022/09/28 03:25:59;;;;;;;8.08;3.98;;;;;;;5.21;87.83;98815.41;1758628;79;21006;-76
2022/09/28 03:28:25;;;;;;;9.53;3.85;;;;;;;5.21;87.84;98810.12;1760280;78;21066;-76
2022/09/28 03:30:51;;;;;;;7.80;3.90;;;;;;;5.22;87.83;98817.06;1785951;79;21080;-77
2022/09/28 03:33:18;;;;;;;5.15;3.37;;;;;;;5.21;87.83;98818.88;1789816;79;21620;-76
2022/09/28 03:35:49;;;;;;;5.42;3.87;;;;;;;5.20;87.85;98817.25;1787758;78;21006;-76
2022/09/28 03:38:17;;;;;;;7.45;3.35;;;;;;;5.19;87.86;98818.23;1788817;78;21056;-76
2022/09/28 03:40:46;;;;;;;5.87;3.50;;;;;;;5.22;87.88;98821.84;1789692;79;21076;-76
2022/09/28 03:43:12;;;;;;;10.15;3.65;;;;;;;5.22;87.88;98815.24;1767672;78;20993;-76
2022/09/28 03:45:38;;;;;;;6.40;3.52;;;;;;;5.25;87.88;98815.38;1772746;78;21304;-76
2022/09/28 03:48:04;;;;;;;10.68;3.95;;;;;;;5.25;87.88;98816.20;1795207;78;20978;-76
2022/09/28 03:50:30;;;;;;;5.90;3.95;;;;;;;5.24;87.89;98805.31;1788963;77;20993;-76
2022/09/28 03:53:03;;;;;;;9.00;4.12;;;;;;;5.23;87.93;98807.65;1784046;78;21005;-76
2022/09/28 03:55:29;;;;;;;8.38;4.40;;;;;;;5.26;87.94;98803.83;1789714;79;21045;-76
2022/09/28 03:57:55;;;;;;;11.53;4.90;;;;;;;5.23;87.95;98806.33;1763606;80;21137;-76
2022/09/28 04:00:21;;;;;;;10.95;5.95;;;;;;;5.19;87.96;98806.84;1758870;81;21005;-76
2022/09/28 04:02:47;;;;;;;13.38;5.17;;;;;;;5.16;87.96;98806.70;1759140;80;21033;-76
2022/09/28 04:05:14;;;;;;;14.43;5.58;;;;;;;5.13;88.00;98803.09;1759312;80;21041;-76
2022/09/28 04:07:40;;;;;;;11.45;5.67;;;;;;;5.11;88.02;98805.56;1759476;81;21470;-76
2022/09/28 04:10:08;;;;;;;11.18;5.15;;;;;;;5.07;88.06;98807.73;1751525;80;21913;-76
2022/09/28 04:12:34;;;;;;;8.10;4.72;;;;;;;5.04;88.08;98804.95;1759621;80;21002;-76
2022/09/28 04:15:00;;;;;;;10.18;5.40;;;;;;;5.02;88.10;98804.31;1759208;80;21034;-76
2022/09/28 04:17:26;;;;;;;12.03;5.25;;;;;;;5.00;88.16;98798.85;1759110;80;21064;-76
2022/09/28 04:19:52;;;;;;;8.13;4.92;;;;;;;4.96;88.19;98799.70;1758577;80;21027;-76
2022/09/28 04:22:18;;;;;;;8.75;4.80;;;;;;;4.95;88.20;98797.25;1758903;80;21159;-76
2022/09/28 04:24:45;;;;;;;7.05;4.42;;;;;;;4.94;88.17;98796.91;1759243;81;20997;-76
2022/09/28 04:29:55;;;;;;;12.85;5.40;;;;;;;4.92;88.23;98789.67;1748002;80;20982;-76
2022/09/28 04:32:21;;;;;;;14.63;5.78;;;;;;;4.87;88.22;98794.64;1757358;80;21010;-76
2022/09/28 04:34:47;;;;;;;8.95;5.10;;;;;;;4.87;88.25;98794.64;1758496;80;21073;-76
2022/09/28 04:37:13;;;;;;;10.70;4.50;;;;;;;4.86;88.25;98794.30;1759032;81;20985;-76
2022/09/28 04:39:39;;;;;;;10.90;5.17;;;;;;;4.85;88.27;98797.47;1757856;80;21047;-76
2022/09/28 04:42:05;;;;;;;10.08;5.62;;;;;;;4.85;88.29;98790.87;1759451;80;21038;-76
2022/09/28 04:44:31;;;;;;;18.65;7.12;;;;;;;4.87;88.28;98794.14;1731803;81;21006;-76
2022/09/28 04:46:57;;;;;;;13.90;6.90;;;;;;;4.91;88.29;98799.91;1759299;81;21104;-76
2022/09/28 04:49:24;;;;;;;10.10;6.25;;;;;;;4.95;88.30;98790.64;1759487;80;21408;-76
2022/09/28 04:51:50;;;;;;;9.63;6.47;;;;;;;4.92;88.32;98794.95;1759059;81;20985;-76
2022/09/28 04:54:16;;;;;;;8.75;5.78;;;;;;;4.91;88.35;98793.30;1758767;80;21497;-76
2022/09/28 04:56:42;;;;;;;12.40;6.33;;;;;;;4.87;88.34;98794.64;1758967;80;21063;-76
2022/09/28 04:59:08;;;;;;;11.15;6.15;;;;;;;4.87;88.38;98795.95;1758672;80;21065;-76
2022/09/28 05:01:35;;;;;;;17.25;5.87;;;;;;;4.83;88.37;98796.80;1764400;80;21013;-76
2022/09/28 05:04:02;;;;;;;11.63;6.20;;;;;;;4.81;88.36;98790.05;1759225;80;21453;-76
2022/09/28 05:06:29;;;;;;;11.38;5.87;;;;;;;4.82;88.38;98794.35;1757826;80;21062;-76
2022/09/28 05:08:56;;;;;;;10.93;5.60;;;;;;;4.81;88.38;98799.30;1758945;80;21006;-76
2022/09/28 05:11:22;;;;;;;8.78;6.08;;;;;;;4.82;88.38;98799.63;1758997;80;21115;-76
2022/09/28 05:13:49;;;;;;;8.68;4.95;;;;;;;4.81;88.41;98794.02;1759635;80;21044;-76
2022/09/28 05:16:15;;;;;;;16.50;5.70;;;;;;;4.82;88.45;98783.79;1763890;80;21549;-76
2022/09/28 05:18:41;;;;;;;8.28;4.58;;;;;;;4.84;88.47;98793.17;1757092;80;21557;-76
2022/09/28 05:21:12;;;;;;;8.75;4.58;;;;;;;4.83;88.45;98792.84;1754477;80;21033;-76
2022/09/28 05:23:39;;;;;;;10.13;5.05;;;;;;;4.84;88.49;98788.39;1759381;80;21957;-76
2022/09/28 05:26:06;;;;;;;10.28;5.75;;;;;;;4.88;88.52;98789.20;1759096;81;20981;-76
2022/09/28 05:28:32;;;;;;;9.83;5.05;;;;;;;4.92;88.56;98792.31;1765177;80;21046;-76
2022/09/28 05:31:00;;;;;;;9.13;4.45;;;;;;;4.98;88.57;98794.25;1758957;81;21489;-76
2022/09/28 05:33:27;;;;;;;9.18;4.08;;;;;;;5.05;88.60;98795.20;1758324;80;21120;-76
2022/09/28 05:35:53;;;;;;;7.90;4.30;;;;;;;5.14;88.60;98794.67;1759296;81;21157;-76
2022/09/28 05:38:19;;;;;;;6.25;3.83;;;;;;;5.27;88.65;98793.09;1759116;81;21058;-76
2022/09/28 05:40:45;;;;;;;12.40;4.90;;;;;;;6.06;88.99;98786.98;1759461;81;21033;-76
2022/09/28 05:43:11;;;;;;;10.72;4.58;;;;;;;7.21;89.08;98783.11;1759011;81;20970;-76
2022/09/28 05:45:37;;;;;;;7.58;4.45;;;;;;;8.21;88.78;98774.95;1759436;81;21041;-76
2022/09/28 05:48:03;;;;;;;5.95;4.08;;;;;;;8.68;87.89;98774.23;1758065;80;21474;-76
2022/09/28 05:50:29;;;;;;;7.33;3.95;;;;;;;8.37;87.20;98778.14;1755028;80;21064;-76
2022/09/28 05:53:04;;;;;;;5.10;3.90;;;;;;;8.08;87.24;98769.56;1757757;80;21075;-76
2022/09/28 05:55:31;;;;;;;6.47;4.30;;;;;;;7.97;87.45;98775.72;1755820;80;20988;-76
2022/09/28 05:57:59;;;;;;;7.37;4.47;;;;;;;8.17;87.73;98774.52;1759553;80;21002;-73
2022/09/28 06:00:27;;;;;;;5.67;4.12;;;;;;;8.48;87.85;98772.29;1759014;81;21153;-73
2022/09/28 06:03:00;;;;;;;12.00;4.67;;;;;;;8.74;87.90;98770.78;1751884;80;21031;-73
